sensor_id;sensor_type;location;lat;lon;timestamp;P1;durP1;ratioP1;P2;durP2;ratioP2
61003;SDS011;46889;37.310;13.582;2023-03-14T00:00:50;12.83;;;2.83;;
61003;SDS011;46889;37.310;13.582;2023-03-14T00:03:17;15.00;;;3.30;;
61003;SDS011;46889;37.310;13.582;2023-03-14T00:05:43;15.60;;;3.35;;
61003;SDS011;46889;37.310;13.582;2023-03-14T00:08:10;16.58;;;3.33;;
61003;SDS011;46889;37.310;13.582;2023-03-14T00:10:36;13.38;;;3.08;;
61003;SDS011;46889;37.310;13.582;2023-03-14T00:13:03;14.75;;;3.05;;
61003;SDS011;46889;37.310;13.582;2023-03-14T00:15:29;20.30;;;3.73;;
61003;SDS011;46889;37.310;13.582;2023-03-14T00:17:56;17.97;;;3.63;;
61003;SDS011;46889;37.310;13.582;2023-03-14T00:20:23;13.13;;;2.60;;
61003;SDS011;46889;37.310;13.582;2023-03-14T00:22:50;13.27;;;2.97;;
61003;SDS011;46889;37.310;13.582;2023-03-14T00:25:17;10.88;;;2.85;;
61003;SDS011;46889;37.310;13.582;2023-03-14T00:27:44;19.20;;;3.00;;
61003;SDS011;46889;37.310;13.582;2023-03-14T00:30:10;19.43;;;3.93;;
61003;SDS011;46889;37.310;13.582;2023-03-14T00:32:36;14.43;;;3.03;;
61003;SDS011;46889;37.310;13.582;2023-03-14T00:35:02;14.40;;;3.10;;
61003;SDS011;46889;37.310;13.582;2023-03-14T00:37:33;12.10;;;2.97;;
61003;SDS011;46889;37.310;13.582;2023-03-14T00:39:59;13.80;;;3.30;;
61003;SDS011;46889;37.310;13.582;2023-03-14T00:42:25;15.83;;;3.33;;
61003;SDS011;46889;37.310;13.582;2023-03-14T00:44:53;16.98;;;3.70;;
61003;SDS011;46889;37.310;13.582;2023-03-14T00:49:46;18.75;;;3.88;;
61003;SDS011;46889;37.310;13.582;2023-03-14T00:52:12;12.52;;;3.75;;
61003;SDS011;46889;37.310;13.582;2023-03-14T00:54:38;20.80;;;3.53;;
61003;SDS011;46889;37.310;13.582;2023-03-14T00:57:04;19.38;;;4.05;;
61003;SDS011;46889;37.310;13.582;2023-03-14T00:59:31;16.07;;;3.40;;
61003;SDS011;46889;37.310;13.582;2023-03-14T01:01:57;18.95;;;4.70;;
61003;SDS011;46889;37.310;13.582;2023-03-14T01:04:23;15.35;;;3.85;;
61003;SDS011;46889;37.310;13.582;2023-03-14T01:06:50;18.17;;;3.65;;
61003;SDS011;46889;37.310;13.582;2023-03-14T01:09:16;19.47;;;4.20;;
61003;SDS011;46889;37.310;13.582;2023-03-14T01:14:11;15.77;;;4.57;;
61003;SDS011;46889;37.310;13.582;2023-03-14T01:16:38;18.17;;;5.00;;
61003;SDS011;46889;37.310;13.582;2023-03-14T01:19:10;17.63;;;4.72;;
61003;SDS011;46889;37.310;13.582;2023-03-14T01:21:36;18.45;;;4.68;;
61003;SDS011;46889;37.310;13.582;2023-03-14T01:24:04;17.85;;;4.65;;
61003;SDS011;46889;37.310;13.582;2023-03-14T01:26:32;15.75;;;4.38;;
61003;SDS011;46889;37.310;13.582;2023-03-14T01:28:59;22.10;;;4.95;;
61003;SDS011;46889;37.310;13.582;2023-03-14T01:31:27;19.50;;;4.43;;
61003;SDS011;46889;37.310;13.582;2023-03-14T01:33:54;23.23;;;4.70;;
61003;SDS011;46889;37.310;13.582;2023-03-14T01:36:21;19.17;;;4.90;;
61003;SDS011;46889;37.310;13.582;2023-03-14T01:38:47;14.50;;;4.40;;
61003;SDS011;46889;37.310;13.582;2023-03-14T01:41:15;19.08;;;5.35;;
61003;SDS011;46889;37.310;13.582;2023-03-14T01:43:44;21.10;;;4.97;;
61003;SDS011;46889;37.310;13.582;2023-03-14T01:49:21;20.13;;;4.72;;
61003;SDS011;46889;37.310;13.582;2023-03-14T01:52:03;17.48;;;4.88;;
61003;SDS011;46889;37.310;13.582;2023-03-14T01:54:45;20.85;;;5.13;;
61003;SDS011;46889;37.310;13.582;2023-03-14T01:57:20;23.95;;;5.20;;
61003;SDS011;46889;37.310;13.582;2023-03-14T01:59:54;23.65;;;4.68;;
61003;SDS011;46889;37.310;13.582;2023-03-14T02:02:21;20.30;;;4.80;;
61003;SDS011;46889;37.310;13.582;2023-03-14T02:10:05;18.48;;;5.20;;
61003;SDS011;46889;37.310;13.582;2023-03-14T02:12:34;16.10;;;5.00;;
61003;SDS011;46889;37.310;13.582;2023-03-14T02:15:03;19.83;;;5.10;;
61003;SDS011;46889;37.310;13.582;2023-03-14T02:17:32;19.52;;;5.13;;
61003;SDS011;46889;37.310;13.582;2023-03-14T02:22:53;20.10;;;5.15;;
61003;SDS011;46889;37.310;13.582;2023-03-14T02:28:05;23.15;;;5.28;;
61003;SDS011;46889;37.310;13.582;2023-03-14T02:30:32;21.77;;;5.72;;
61003;SDS011;46889;37.310;13.582;2023-03-14T02:33:04;16.95;;;4.43;;
61003;SDS011;46889;37.310;13.582;2023-03-14T02:38:12;19.05;;;4.75;;
61003;SDS011;46889;37.310;13.582;2023-03-14T02:40:40;20.05;;;4.95;;
61003;SDS011;46889;37.310;13.582;2023-03-14T02:43:07;23.45;;;5.20;;
61003;SDS011;46889;37.310;13.582;2023-03-14T02:45:35;20.10;;;4.93;;
61003;SDS011;46889;37.310;13.582;2023-03-14T02:48:16;17.67;;;4.10;;
61003;SDS011;46889;37.310;13.582;2023-03-14T02:50:50;14.85;;;4.40;;
61003;SDS011;46889;37.310;13.582;2023-03-14T02:53:21;16.35;;;4.57;;
61003;SDS011;46889;37.310;13.582;2023-03-14T02:55:54;19.33;;;4.82;;
61003;SDS011;46889;37.310;13.582;2023-03-14T02:58:22;14.90;;;4.72;;
61003;SDS011;46889;37.310;13.582;2023-03-14T03:00:54;18.45;;;4.18;;
61003;SDS011;46889;37.310;13.582;2023-03-14T03:03:21;15.57;;;3.95;;
61003;SDS011;46889;37.310;13.582;2023-03-14T03:05:49;17.05;;;4.35;;
61003;SDS011;46889;37.310;13.582;2023-03-14T03:08:16;18.20;;;4.70;;
61003;SDS011;46889;37.310;13.582;2023-03-14T03:10:43;19.17;;;4.50;;
61003;SDS011;46889;37.310;13.582;2023-03-14T03:13:10;17.95;;;3.92;;
61003;SDS011;46889;37.310;13.582;2023-03-14T03:15:36;22.42;;;3.80;;
61003;SDS011;46889;37.310;13.582;2023-03-14T03:18:04;13.75;;;3.67;;
61003;SDS011;46889;37.310;13.582;2023-03-14T03:20:31;18.42;;;3.65;;
61003;SDS011;46889;37.310;13.582;2023-03-14T03:22:58;22.27;;;4.30;;
61003;SDS011;46889;37.310;13.582;2023-03-14T03:25:24;23.83;;;5.18;;
61003;SDS011;46889;37.310;13.582;2023-03-14T03:27:51;17.90;;;3.67;;
61003;SDS011;46889;37.310;13.582;2023-03-14T03:30:18;19.98;;;4.78;;
61003;SDS011;46889;37.310;13.582;2023-03-14T03:32:48;17.20;;;4.30;;
61003;SDS011;46889;37.310;13.582;2023-03-14T03:35:14;17.73;;;4.50;;
61003;SDS011;46889;37.310;13.582;2023-03-14T03:37:40;19.95;;;4.43;;
61003;SDS011;46889;37.310;13.582;2023-03-14T03:40:07;17.13;;;4.45;;
61003;SDS011;46889;37.310;13.582;2023-03-14T03:42:34;15.80;;;4.07;;
61003;SDS011;46889;37.310;13.582;2023-03-14T03:45:03;20.30;;;4.15;;
61003;SDS011;46889;37.310;13.582;2023-03-14T03:47:30;16.83;;;4.45;;
61003;SDS011;46889;37.310;13.582;2023-03-14T03:49:58;15.50;;;4.00;;
61003;SDS011;46889;37.310;13.582;2023-03-14T03:52:26;13.13;;;3.95;;
61003;SDS011;46889;37.310;13.582;2023-03-14T03:54:55;19.85;;;4.18;;
61003;SDS011;46889;37.310;13.582;2023-03-14T03:57:21;18.00;;;4.40;;
61003;SDS011;46889;37.310;13.582;2023-03-14T03:59:47;10.53;;;3.63;;
61003;SDS011;46889;37.310;13.582;2023-03-14T04:02:13;23.10;;;3.70;;
61003;SDS011;46889;37.310;13.582;2023-03-14T04:04:41;21.42;;;4.40;;
61003;SDS011;46889;37.310;13.582;2023-03-14T04:07:07;20.73;;;4.83;;
61003;SDS011;46889;37.310;13.582;2023-03-14T04:09:34;17.52;;;3.72;;
61003;SDS011;46889;37.310;13.582;2023-03-14T04:12:00;21.87;;;4.03;;
61003;SDS011;46889;37.310;13.582;2023-03-14T04:14:29;20.77;;;4.28;;
61003;SDS011;46889;37.310;13.582;2023-03-14T04:16:59;19.38;;;4.03;;
61003;SDS011;46889;37.310;13.582;2023-03-14T04:19:25;20.17;;;3.42;;
61003;SDS011;46889;37.310;13.582;2023-03-14T04:21:52;17.42;;;3.50;;
61003;SDS011;46889;37.310;13.582;2023-03-14T04:24:19;21.88;;;3.95;;
61003;SDS011;46889;37.310;13.582;2023-03-14T04:26:47;14.70;;;4.18;;
61003;SDS011;46889;37.310;13.582;2023-03-14T04:31:55;11.60;;;3.42;;
61003;SDS011;46889;37.310;13.582;2023-03-14T04:34:21;20.25;;;3.50;;
61003;SDS011;46889;37.310;13.582;2023-03-14T04:36:48;24.10;;;3.40;;
61003;SDS011;46889;37.310;13.582;2023-03-14T04:39:14;18.00;;;3.83;;
61003;SDS011;46889;37.310;13.582;2023-03-14T04:41:40;15.10;;;3.17;;
61003;SDS011;46889;37.310;13.582;2023-03-14T04:44:06;18.30;;;4.78;;
61003;SDS011;46889;37.310;13.582;2023-03-14T04:46:33;20.05;;;3.58;;
61003;SDS011;46889;37.310;13.582;2023-03-14T04:48:59;18.48;;;4.03;;
61003;SDS011;46889;37.310;13.582;2023-03-14T04:51:26;15.93;;;3.80;;
61003;SDS011;46889;37.310;13.582;2023-03-14T04:53:53;17.80;;;3.40;;
61003;SDS011;46889;37.310;13.582;2023-03-14T04:56:20;13.77;;;3.83;;
61003;SDS011;46889;37.310;13.582;2023-03-14T04:58:46;22.27;;;3.72;;
61003;SDS011;46889;37.310;13.582;2023-03-14T05:01:12;21.52;;;3.80;;
61003;SDS011;46889;37.310;13.582;2023-03-14T05:06:05;17.50;;;4.23;;
61003;SDS011;46889;37.310;13.582;2023-03-14T05:08:32;14.03;;;4.17;;
61003;SDS011;46889;37.310;13.582;2023-03-14T05:10:58;22.33;;;4.13;;
61003;SDS011;46889;37.310;13.582;2023-03-14T05:13:24;24.57;;;4.53;;
61003;SDS011;46889;37.310;13.582;2023-03-14T05:15:51;16.43;;;3.50;;
61003;SDS011;46889;37.310;13.582;2023-03-14T05:18:18;16.92;;;3.42;;
61003;SDS011;46889;37.310;13.582;2023-03-14T05:20:45;17.02;;;4.15;;
61003;SDS011;46889;37.310;13.582;2023-03-14T05:23:11;17.07;;;3.87;;
61003;SDS011;46889;37.310;13.582;2023-03-14T05:25:37;16.67;;;3.60;;
61003;SDS011;46889;37.310;13.582;2023-03-14T05:28:03;19.52;;;3.75;;
61003;SDS011;46889;37.310;13.582;2023-03-14T05:30:33;19.52;;;4.05;;
61003;SDS011;46889;37.310;13.582;2023-03-14T05:33:01;20.02;;;4.13;;
61003;SDS011;46889;37.310;13.582;2023-03-14T05:35:27;20.38;;;4.70;;
61003;SDS011;46889;37.310;13.582;2023-03-14T05:37:53;17.10;;;3.97;;
61003;SDS011;46889;37.310;13.582;2023-03-14T05:40:19;17.83;;;3.87;;
61003;SDS011;46889;37.310;13.582;2023-03-14T05:42:47;19.33;;;3.45;;
61003;SDS011;46889;37.310;13.582;2023-03-14T05:45:15;17.73;;;4.30;;
61003;SDS011;46889;37.310;13.582;2023-03-14T05:47:41;16.63;;;3.67;;
61003;SDS011;46889;37.310;13.582;2023-03-14T05:50:09;25.17;;;4.22;;
61003;SDS011;46889;37.310;13.582;2023-03-14T05:52:37;17.20;;;3.58;;
61003;SDS011;46889;37.310;13.582;2023-03-14T05:55:05;13.60;;;4.00;;
61003;SDS011;46889;37.310;13.582;2023-03-14T05:57:37;13.70;;;3.75;;
61003;SDS011;46889;37.310;13.582;2023-03-14T06:00:07;19.42;;;4.18;;
61003;SDS011;46889;37.310;13.582;2023-03-14T06:02:37;17.95;;;4.15;;
61003;SDS011;46889;37.310;13.582;2023-03-14T06:05:03;19.63;;;3.70;;
61003;SDS011;46889;37.310;13.582;2023-03-14T06:07:29;20.10;;;3.35;;
61003;SDS011;46889;37.310;13.582;2023-03-14T06:09:55;23.08;;;3.55;;
61003;SDS011;46889;37.310;13.582;2023-03-14T06:12:23;22.42;;;3.80;;
61003;SDS011;46889;37.310;13.582;2023-03-14T06:14:52;19.73;;;3.85;;
61003;SDS011;46889;37.310;13.582;2023-03-14T06:17:20;17.52;;;3.90;;
61003;SDS011;46889;37.310;13.582;2023-03-14T06:19:49;18.08;;;3.45;;
61003;SDS011;46889;37.310;13.582;2023-03-14T06:22:15;19.55;;;4.13;;
61003;SDS011;46889;37.310;13.582;2023-03-14T06:24:44;12.95;;;3.20;;
61003;SDS011;46889;37.310;13.582;2023-03-14T06:27:11;11.10;;;2.97;;
61003;SDS011;46889;37.310;13.582;2023-03-14T06:32:04;18.10;;;2.85;;
61003;SDS011;46889;37.310;13.582;2023-03-14T06:34:30;17.90;;;3.30;;
61003;SDS011;46889;37.310;13.582;2023-03-14T06:36:56;11.73;;;2.73;;
61003;SDS011;46889;37.310;13.582;2023-03-14T06:39:22;18.75;;;3.58;;
61003;SDS011;46889;37.310;13.582;2023-03-14T06:41:54;19.27;;;3.47;;
61003;SDS011;46889;37.310;13.582;2023-03-14T06:44:21;15.85;;;3.25;;
61003;SDS011;46889;37.310;13.582;2023-03-14T06:46:50;15.53;;;3.57;;
61003;SDS011;46889;37.310;13.582;2023-03-14T06:49:16;13.23;;;2.72;;
61003;SDS011;46889;37.310;13.582;2023-03-14T06:51:42;17.23;;;3.53;;
61003;SDS011;46889;37.310;13.582;2023-03-14T06:54:08;22.20;;;3.70;;
61003;SDS011;46889;37.310;13.582;2023-03-14T06:56:36;17.63;;;3.97;;
61003;SDS011;46889;37.310;13.582;2023-03-14T06:59:08;18.58;;;3.50;;
61003;SDS011;46889;37.310;13.582;2023-03-14T07:01:34;19.35;;;3.65;;
61003;SDS011;46889;37.310;13.582;2023-03-14T07:04:01;14.50;;;3.40;;
61003;SDS011;46889;37.310;13.582;2023-03-14T07:06:30;16.42;;;4.20;;
61003;SDS011;46889;37.310;13.582;2023-03-14T07:09:03;14.95;;;2.95;;
61003;SDS011;46889;37.310;13.582;2023-03-14T07:11:29;15.43;;;3.15;;
61003;SDS011;46889;37.310;13.582;2023-03-14T07:13:55;17.07;;;3.30;;
61003;SDS011;46889;37.310;13.582;2023-03-14T07:16:22;16.35;;;3.00;;
61003;SDS011;46889;37.310;13.582;2023-03-14T07:18:48;15.83;;;2.53;;
61003;SDS011;46889;37.310;13.582;2023-03-14T07:21:15;20.70;;;3.63;;
61003;SDS011;46889;37.310;13.582;2023-03-14T07:26:10;15.82;;;3.13;;
61003;SDS011;46889;37.310;13.582;2023-03-14T07:28:37;19.35;;;4.20;;
61003;SDS011;46889;37.310;13.582;2023-03-14T07:31:03;19.77;;;3.10;;
61003;SDS011;46889;37.310;13.582;2023-03-14T07:33:30;14.90;;;2.95;;
61003;SDS011;46889;37.310;13.582;2023-03-14T07:35:57;13.50;;;3.30;;
61003;SDS011;46889;37.310;13.582;2023-03-14T07:40:49;15.15;;;2.72;;
61003;SDS011;46889;37.310;13.582;2023-03-14T07:43:16;17.95;;;3.63;;
61003;SDS011;46889;37.310;13.582;2023-03-14T07:48:11;15.07;;;3.40;;
61003;SDS011;46889;37.310;13.582;2023-03-14T07:50:37;19.03;;;2.70;;
61003;SDS011;46889;37.310;13.582;2023-03-14T07:53:07;14.68;;;3.17;;
61003;SDS011;46889;37.310;13.582;2023-03-14T07:55:34;17.00;;;2.85;;
61003;SDS011;46889;37.310;13.582;2023-03-14T07:58:00;15.88;;;2.97;;
61003;SDS011;46889;37.310;13.582;2023-03-14T08:00:27;14.63;;;3.55;;
61003;SDS011;46889;37.310;13.582;2023-03-14T08:02:53;17.48;;;3.55;;
61003;SDS011;46889;37.310;13.582;2023-03-14T08:05:19;14.32;;;2.80;;
61003;SDS011;46889;37.310;13.582;2023-03-14T08:07:45;14.60;;;2.97;;
61003;SDS011;46889;37.310;13.582;2023-03-14T08:10:13;10.52;;;2.80;;
61003;SDS011;46889;37.310;13.582;2023-03-14T08:12:49;13.70;;;2.90;;
61003;SDS011;46889;37.310;13.582;2023-03-14T08:15:25;14.63;;;2.40;;
61003;SDS011;46889;37.310;13.582;2023-03-14T08:17:54;15.05;;;2.67;;
61003;SDS011;46889;37.310;13.582;2023-03-14T08:20:21;15.55;;;3.08;;
61003;SDS011;46889;37.310;13.582;2023-03-14T08:22:49;10.00;;;2.20;;
61003;SDS011;46889;37.310;13.582;2023-03-14T08:25:15;14.73;;;2.90;;
61003;SDS011;46889;37.310;13.582;2023-03-14T08:27:42;14.88;;;2.70;;
61003;SDS011;46889;37.310;13.582;2023-03-14T08:30:13;11.95;;;2.67;;
61003;SDS011;46889;37.310;13.582;2023-03-14T08:32:42;14.70;;;2.90;;
61003;SDS011;46889;37.310;13.582;2023-03-14T08:35:09;19.63;;;3.97;;
61003;SDS011;46889;37.310;13.582;2023-03-14T08:37:36;17.05;;;3.55;;
61003;SDS011;46889;37.310;13.582;2023-03-14T08:40:04;12.95;;;2.90;;
61003;SDS011;46889;37.310;13.582;2023-03-14T08:42:33;20.25;;;3.13;;
61003;SDS011;46889;37.310;13.582;2023-03-14T08:44:59;9.07;;;2.28;;
61003;SDS011;46889;37.310;13.582;2023-03-14T08:47:27;18.80;;;2.90;;
61003;SDS011;46889;37.310;13.582;2023-03-14T08:49:55;16.58;;;2.80;;
61003;SDS011;46889;37.310;13.582;2023-03-14T08:52:21;15.02;;;2.92;;
61003;SDS011;46889;37.310;13.582;2023-03-14T08:54:49;10.48;;;2.30;;
61003;SDS011;46889;37.310;13.582;2023-03-14T08:57:15;10.68;;;2.30;;
61003;SDS011;46889;37.310;13.582;2023-03-14T08:59:41;11.20;;;2.70;;
61003;SDS011;46889;37.310;13.582;2023-03-14T09:02:11;10.05;;;2.08;;
61003;SDS011;46889;37.310;13.582;2023-03-14T09:04:38;18.70;;;2.72;;
61003;SDS011;46889;37.310;13.582;2023-03-14T09:07:04;10.90;;;2.03;;
61003;SDS011;46889;37.310;13.582;2023-03-14T09:09:30;16.10;;;2.38;;
61003;SDS011;46889;37.310;13.582;2023-03-14T09:11:58;12.38;;;2.30;;
61003;SDS011;46889;37.310;13.582;2023-03-14T09:14:26;13.73;;;2.63;;
61003;SDS011;46889;37.310;13.582;2023-03-14T09:16:52;13.23;;;2.08;;
61003;SDS011;46889;37.310;13.582;2023-03-14T09:19:18;14.05;;;2.53;;
61003;SDS011;46889;37.310;13.582;2023-03-14T09:21:44;19.93;;;2.87;;
61003;SDS011;46889;37.310;13.582;2023-03-14T09:24:16;13.80;;;2.17;;
61003;SDS011;46889;37.310;13.582;2023-03-14T09:26:42;13.00;;;2.42;;
61003;SDS011;46889;37.310;13.582;2023-03-14T09:29:09;18.80;;;2.40;;
61003;SDS011;46889;37.310;13.582;2023-03-14T09:31:35;8.52;;;1.58;;
61003;SDS011;46889;37.310;13.582;2023-03-14T09:34:01;11.77;;;2.22;;
61003;SDS011;46889;37.310;13.582;2023-03-14T09:36:27;13.40;;;1.98;;
61003;SDS011;46889;37.310;13.582;2023-03-14T09:38:53;12.25;;;2.45;;
61003;SDS011;46889;37.310;13.582;2023-03-14T09:41:29;11.30;;;2.22;;
61003;SDS011;46889;37.310;13.582;2023-03-14T09:46:31;11.98;;;2.50;;
61003;SDS011;46889;37.310;13.582;2023-03-14T09:49:11;10.93;;;2.05;;
61003;SDS011;46889;37.310;13.582;2023-03-14T09:51:51;10.65;;;2.13;;
61003;SDS011;46889;37.310;13.582;2023-03-14T09:54:37;15.65;;;3.08;;
61003;SDS011;46889;37.310;13.582;2023-03-14T09:57:37;8.52;;;1.88;;
61003;SDS011;46889;37.310;13.582;2023-03-14T10:00:26;11.77;;;2.22;;
61003;SDS011;46889;37.310;13.582;2023-03-14T10:02:55;14.60;;;2.17;;
61003;SDS011;46889;37.310;13.582;2023-03-14T10:05:33;12.75;;;2.35;;
61003;SDS011;46889;37.310;13.582;2023-03-14T10:07:59;11.63;;;2.65;;
61003;SDS011;46889;37.310;13.582;2023-03-14T10:10:27;14.60;;;2.30;;
61003;SDS011;46889;37.310;13.582;2023-03-14T10:13:05;15.45;;;2.30;;
61003;SDS011;46889;37.310;13.582;2023-03-14T10:16:00;14.50;;;2.45;;
61003;SDS011;46889;37.310;13.582;2023-03-14T10:18:28;11.48;;;2.50;;
61003;SDS011;46889;37.310;13.582;2023-03-14T10:21:07;14.32;;;2.95;;
61003;SDS011;46889;37.310;13.582;2023-03-14T10:23:52;16.73;;;3.17;;
61003;SDS011;46889;37.310;13.582;2023-03-14T10:26:28;16.75;;;2.67;;
61003;SDS011;46889;37.310;13.582;2023-03-14T10:29:11;11.95;;;2.70;;
61003;SDS011;46889;37.310;13.582;2023-03-14T10:31:48;14.80;;;4.47;;
61003;SDS011;46889;37.310;13.582;2023-03-14T10:34:23;16.85;;;3.08;;
61003;SDS011;46889;37.310;13.582;2023-03-14T10:36:57;13.68;;;3.22;;
61003;SDS011;46889;37.310;13.582;2023-03-14T10:39:44;35.97;;;3.35;;
61003;SDS011;46889;37.310;13.582;2023-03-14T10:42:20;20.30;;;3.42;;
61003;SDS011;46889;37.310;13.582;2023-03-14T10:44:56;20.70;;;2.80;;
61003;SDS011;46889;37.310;13.582;2023-03-14T10:47:26;13.38;;;2.72;;
61003;SDS011;46889;37.310;13.582;2023-03-14T10:49:53;15.38;;;2.75;;
61003;SDS011;46889;37.310;13.582;2023-03-14T10:52:24;13.40;;;2.45;;
61003;SDS011;46889;37.310;13.582;2023-03-14T10:54:57;15.15;;;2.70;;
61003;SDS011;46889;37.310;13.582;2023-03-14T10:57:27;17.20;;;3.00;;
61003;SDS011;46889;37.310;13.582;2023-03-14T10:59:55;17.02;;;2.85;;
61003;SDS011;46889;37.310;13.582;2023-03-14T11:02:43;17.02;;;2.88;;
61003;SDS011;46889;37.310;13.582;2023-03-14T11:05:34;16.13;;;3.08;;
61003;SDS011;46889;37.310;13.582;2023-03-14T11:09:00;16.08;;;2.65;;
61003;SDS011;46889;37.310;13.582;2023-03-14T11:11:12;21.55;;;2.90;;
61003;SDS011;46889;37.310;13.582;2023-03-14T11:19:43;15.88;;;2.55;;
61003;SDS011;46889;37.310;13.582;2023-03-14T11:22:32;16.38;;;2.88;;
61003;SDS011;46889;37.310;13.582;2023-03-14T11:36:03;17.80;;;2.97;;
61003;SDS011;46889;37.310;13.582;2023-03-14T11:38:41;23.05;;;3.15;;
61003;SDS011;46889;37.310;13.582;2023-03-14T11:41:20;18.17;;;3.38;;
61003;SDS011;46889;37.310;13.582;2023-03-14T11:43:57;16.05;;;2.30;;
61003;SDS011;46889;37.310;13.582;2023-03-14T11:46:32;14.23;;;3.72;;
61003;SDS011;46889;37.310;13.582;2023-03-14T11:51:44;15.90;;;2.95;;
61003;SDS011;46889;37.310;13.582;2023-03-14T11:54:17;17.27;;;3.85;;
61003;SDS011;46889;37.310;13.582;2023-03-14T12:05:12;27.25;;;4.10;;
61003;SDS011;46889;37.310;13.582;2023-03-14T12:10:49;20.52;;;3.85;;
61003;SDS011;46889;37.310;13.582;2023-03-14T12:13:18;25.63;;;4.13;;
61003;SDS011;46889;37.310;13.582;2023-03-14T12:20:55;20.70;;;4.18;;
61003;SDS011;46889;37.310;13.582;2023-03-14T12:23:45;13.95;;;2.85;;
61003;SDS011;46889;37.310;13.582;2023-03-14T12:28:51;18.17;;;3.97;;
61003;SDS011;46889;37.310;13.582;2023-03-14T12:39:21;29.48;;;4.75;;
61003;SDS011;46889;37.310;13.582;2023-03-14T12:42:02;17.40;;;3.95;;
61003;SDS011;46889;37.310;13.582;2023-03-14T12:46:59;24.92;;;3.70;;
61003;SDS011;46889;37.310;13.582;2023-03-14T12:49:41;17.33;;;4.00;;
61003;SDS011;46889;37.310;13.582;2023-03-14T12:52:13;20.27;;;3.97;;
61003;SDS011;46889;37.310;13.582;2023-03-14T12:54:43;24.30;;;3.72;;
61003;SDS011;46889;37.310;13.582;2023-03-14T13:11:15;20.10;;;3.90;;
61003;SDS011;46889;37.310;13.582;2023-03-14T13:13:45;22.02;;;5.47;;
61003;SDS011;46889;37.310;13.582;2023-03-14T13:16:16;24.27;;;4.35;;
61003;SDS011;46889;37.310;13.582;2023-03-14T13:18:49;18.33;;;3.95;;
61003;SDS011;46889;37.310;13.582;2023-03-14T13:21:27;19.45;;;3.83;;
61003;SDS011;46889;37.310;13.582;2023-03-14T13:24:00;26.90;;;4.22;;
61003;SDS011;46889;37.310;13.582;2023-03-14T13:26:32;18.23;;;3.42;;
61003;SDS011;46889;37.310;13.582;2023-03-14T13:29:18;26.90;;;4.45;;
61003;SDS011;46889;37.310;13.582;2023-03-14T13:31:50;26.17;;;4.45;;
61003;SDS011;46889;37.310;13.582;2023-03-14T13:34:17;19.95;;;3.70;;
61003;SDS011;46889;37.310;13.582;2023-03-14T13:36:47;30.25;;;4.85;;
61003;SDS011;46889;37.310;13.582;2023-03-14T13:39:21;27.13;;;4.85;;
61003;SDS011;46889;37.310;13.582;2023-03-14T13:41:52;22.13;;;5.20;;
61003;SDS011;46889;37.310;13.582;2023-03-14T13:44:29;28.85;;;4.40;;
61003;SDS011;46889;37.310;13.582;2023-03-14T13:47:02;38.60;;;5.40;;
61003;SDS011;46889;37.310;13.582;2023-03-14T13:49:49;22.70;;;4.65;;
61003;SDS011;46889;37.310;13.582;2023-03-14T13:55:06;25.65;;;4.55;;
61003;SDS011;46889;37.310;13.582;2023-03-14T13:57:48;27.15;;;4.85;;
61003;SDS011;46889;37.310;13.582;2023-03-14T14:00:23;28.60;;;4.55;;
61003;SDS011;46889;37.310;13.582;2023-03-14T14:03:08;26.75;;;4.75;;
61003;SDS011;46889;37.310;13.582;2023-03-14T14:05:36;26.67;;;6.25;;
61003;SDS011;46889;37.310;13.582;2023-03-14T14:08:06;42.83;;;14.73;;
61003;SDS011;46889;37.310;13.582;2023-03-14T14:10:40;26.67;;;5.60;;
61003;SDS011;46889;37.310;13.582;2023-03-14T14:13:08;24.77;;;5.18;;
61003;SDS011;46889;37.310;13.582;2023-03-14T14:15:44;27.85;;;5.50;;
61003;SDS011;46889;37.310;13.582;2023-03-14T14:18:15;25.90;;;4.00;;
61003;SDS011;46889;37.310;13.582;2023-03-14T14:20:46;26.70;;;4.47;;
61003;SDS011;46889;37.310;13.582;2023-03-14T14:23:20;29.27;;;5.25;;
61003;SDS011;46889;37.310;13.582;2023-03-14T14:26:16;29.55;;;4.40;;
61003;SDS011;46889;37.310;13.582;2023-03-14T14:28:44;29.88;;;5.05;;
61003;SDS011;46889;37.310;13.582;2023-03-14T14:33:44;26.92;;;4.25;;
61003;SDS011;46889;37.310;13.582;2023-03-14T14:38:58;27.48;;;5.03;;
61003;SDS011;46889;37.310;13.582;2023-03-14T14:44:05;26.88;;;5.13;;
61003;SDS011;46889;37.310;13.582;2023-03-14T14:46:37;26.23;;;4.85;;
61003;SDS011;46889;37.310;13.582;2023-03-14T14:49:14;32.25;;;5.38;;
61003;SDS011;46889;37.310;13.582;2023-03-14T14:51:49;33.88;;;4.97;;
61003;SDS011;46889;37.310;13.582;2023-03-14T14:54:17;26.67;;;4.95;;
61003;SDS011;46889;37.310;13.582;2023-03-14T14:56:52;33.38;;;5.43;;
61003;SDS011;46889;37.310;13.582;2023-03-14T15:01:44;27.67;;;5.10;;
61003;SDS011;46889;37.310;13.582;2023-03-14T15:04:13;27.70;;;5.07;;
61003;SDS011;46889;37.310;13.582;2023-03-14T15:06:44;27.45;;;5.07;;
61003;SDS011;46889;37.310;13.582;2023-03-14T15:09:14;33.65;;;5.57;;
61003;SDS011;46889;37.310;13.582;2023-03-14T15:11:45;27.90;;;5.10;;
61003;SDS011;46889;37.310;13.582;2023-03-14T15:14:23;32.63;;;5.38;;
61003;SDS011;46889;37.310;13.582;2023-03-14T15:16:49;33.00;;;6.05;;
61003;SDS011;46889;37.310;13.582;2023-03-14T15:19:23;27.55;;;5.20;;
61003;SDS011;46889;37.310;13.582;2023-03-14T15:21:54;28.77;;;5.70;;
61003;SDS011;46889;37.310;13.582;2023-03-14T15:24:23;24.90;;;5.22;;
61003;SDS011;46889;37.310;13.582;2023-03-14T15:26:50;33.97;;;5.68;;
61003;SDS011;46889;37.310;13.582;2023-03-14T15:29:31;37.75;;;6.32;;
61003;SDS011;46889;37.310;13.582;2023-03-14T15:32:12;28.70;;;5.32;;
61003;SDS011;46889;37.310;13.582;2023-03-14T15:34:54;36.28;;;6.15;;
61003;SDS011;46889;37.310;13.582;2023-03-14T15:37:21;35.67;;;6.22;;
61003;SDS011;46889;37.310;13.582;2023-03-14T15:39:54;29.90;;;5.57;;
61003;SDS011;46889;37.310;13.582;2023-03-14T15:42:25;29.15;;;6.10;;
61003;SDS011;46889;37.310;13.582;2023-03-14T15:44:54;34.22;;;6.35;;
61003;SDS011;46889;37.310;13.582;2023-03-14T15:47:24;34.38;;;5.70;;
61003;SDS011;46889;37.310;13.582;2023-03-14T15:49:54;37.58;;;6.57;;
61003;SDS011;46889;37.310;13.582;2023-03-14T15:52:24;26.73;;;5.53;;
61003;SDS011;46889;37.310;13.582;2023-03-14T15:54:56;39.30;;;6.43;;
61003;SDS011;46889;37.310;13.582;2023-03-14T15:57:22;49.35;;;7.85;;
61003;SDS011;46889;37.310;13.582;2023-03-14T15:59:49;37.08;;;6.85;;
61003;SDS011;46889;37.310;13.582;2023-03-14T16:02:18;33.03;;;7.55;;
61003;SDS011;46889;37.310;13.582;2023-03-14T16:04:46;39.20;;;8.05;;
61003;SDS011;46889;37.310;13.582;2023-03-14T16:07:15;41.25;;;7.20;;
61003;SDS011;46889;37.310;13.582;2023-03-14T16:09:43;48.13;;;8.55;;
61003;SDS011;46889;37.310;13.582;2023-03-14T16:12:17;35.55;;;7.47;;
61003;SDS011;46889;37.310;13.582;2023-03-14T16:14:51;45.28;;;7.80;;
61003;SDS011;46889;37.310;13.582;2023-03-14T16:17:18;38.78;;;7.68;;
61003;SDS011;46889;37.310;13.582;2023-03-14T16:19:48;33.15;;;8.23;;
61003;SDS011;46889;37.310;13.582;2023-03-14T16:22:14;37.63;;;8.57;;
61003;SDS011;46889;37.310;13.582;2023-03-14T16:24:40;41.20;;;8.63;;
61003;SDS011;46889;37.310;13.582;2023-03-14T16:27:06;38.42;;;9.10;;
61003;SDS011;46889;37.310;13.582;2023-03-14T16:29:35;44.00;;;9.25;;
61003;SDS011;46889;37.310;13.582;2023-03-14T16:32:01;40.75;;;9.95;;